sensor_id;sensor_type;location;lat;lon;timestamp;P1;durP1;ratioP1;P2;durP2;ratioP2
51901;SDS011;37929;53.218;6.548;2022-10-23T00:00:30;8.43;;;4.85;;
51901;SDS011;37929;53.218;6.548;2022-10-23T00:02:56;13.43;;;5.90;;
51901;SDS011;37929;53.218;6.548;2022-10-23T00:05:26;12.43;;;5.45;;
51901;SDS011;37929;53.218;6.548;2022-10-23T00:07:57;7.88;;;4.68;;
51901;SDS011;37929;53.218;6.548;2022-10-23T00:10:24;13.52;;;5.50;;
51901;SDS011;37929;53.218;6.548;2022-10-23T00:12:51;10.98;;;4.88;;
51901;SDS011;37929;53.218;6.548;2022-10-23T00:15:18;10.77;;;4.88;;
51901;SDS011;37929;53.218;6.548;2022-10-23T00:17:48;10.75;;;5.88;;
51901;SDS011;37929;53.218;6.548;2022-10-23T00:20:15;6.88;;;4.90;;
51901;SDS011;37929;53.218;6.548;2022-10-23T00:22:41;9.82;;;5.65;;
51901;SDS011;37929;53.218;6.548;2022-10-23T00:25:07;14.52;;;5.57;;
51901;SDS011;37929;53.218;6.548;2022-10-23T00:27:34;12.43;;;5.00;;
51901;SDS011;37929;53.218;6.548;2022-10-23T00:30:01;11.40;;;5.40;;
51901;SDS011;37929;53.218;6.548;2022-10-23T00:32:28;9.35;;;5.43;;
51901;SDS011;37929;53.218;6.548;2022-10-23T00:34:54;11.30;;;5.88;;
51901;SDS011;37929;53.218;6.548;2022-10-23T00:37:20;9.80;;;5.75;;
51901;SDS011;37929;53.218;6.548;2022-10-23T00:39:48;12.48;;;5.97;;
51901;SDS011;37929;53.218;6.548;2022-10-23T00:42:15;8.75;;;5.18;;
51901;SDS011;37929;53.218;6.548;2022-10-23T00:47:09;7.78;;;5.60;;
51901;SDS011;37929;53.218;6.548;2022-10-23T00:49:36;13.07;;;5.90;;
51901;SDS011;37929;53.218;6.548;2022-10-23T00:52:02;14.25;;;6.20;;
51901;SDS011;37929;53.218;6.548;2022-10-23T00:54:38;10.77;;;6.00;;
51901;SDS011;37929;53.218;6.548;2022-10-23T00:57:07;11.43;;;5.55;;
51901;SDS011;37929;53.218;6.548;2022-10-23T00:59:38;12.65;;;6.95;;
51901;SDS011;37929;53.218;6.548;2022-10-23T01:02:04;10.82;;;6.35;;
51901;SDS011;37929;53.218;6.548;2022-10-23T01:04:30;10.30;;;5.78;;
51901;SDS011;37929;53.218;6.548;2022-10-23T01:13:00;14.10;;;5.57;;
51901;SDS011;37929;53.218;6.548;2022-10-23T01:15:36;8.18;;;5.55;;
51901;SDS011;37929;53.218;6.548;2022-10-23T01:20:41;10.65;;;6.60;;
51901;SDS011;37929;53.218;6.548;2022-10-23T01:23:13;11.95;;;6.90;;
51901;SDS011;37929;53.218;6.548;2022-10-23T01:28:14;12.50;;;6.45;;
51901;SDS011;37929;53.218;6.548;2022-10-23T01:30:45;10.60;;;5.90;;
51901;SDS011;37929;53.218;6.548;2022-10-23T01:33:13;14.65;;;7.43;;
51901;SDS011;37929;53.218;6.548;2022-10-23T01:36:00;11.18;;;6.63;;
51901;SDS011;37929;53.218;6.548;2022-10-23T01:41:12;12.27;;;7.20;;
51901;SDS011;37929;53.218;6.548;2022-10-23T01:46:38;10.68;;;6.20;;
51901;SDS011;37929;53.218;6.548;2022-10-23T01:49:06;11.70;;;6.60;;
51901;SDS011;37929;53.218;6.548;2022-10-23T01:51:35;13.40;;;6.57;;
51901;SDS011;37929;53.218;6.548;2022-10-23T01:54:05;15.15;;;7.38;;
51901;SDS011;37929;53.218;6.548;2022-10-23T01:56:34;13.10;;;7.18;;
51901;SDS011;37929;53.218;6.548;2022-10-23T01:59:04;12.95;;;6.82;;
51901;SDS011;37929;53.218;6.548;2022-10-23T02:01:33;9.85;;;6.40;;
51901;SDS011;37929;53.218;6.548;2022-10-23T02:04:02;10.85;;;6.80;;
51901;SDS011;37929;53.218;6.548;2022-10-23T02:06:31;12.50;;;7.05;;
51901;SDS011;37929;53.218;6.548;2022-10-23T02:08:57;11.52;;;7.40;;
51901;SDS011;37929;53.218;6.548;2022-10-23T02:11:23;14.32;;;7.63;;
51901;SDS011;37929;53.218;6.548;2022-10-23T02:13:57;13.15;;;7.03;;
51901;SDS011;37929;53.218;6.548;2022-10-23T02:22:07;11.73;;;6.43;;
51901;SDS011;37929;53.218;6.548;2022-10-23T02:24:48;10.38;;;7.10;;
51901;SDS011;37929;53.218;6.548;2022-10-23T02:27:37;9.50;;;6.57;;
51901;SDS011;37929;53.218;6.548;2022-10-23T02:30:07;12.80;;;6.97;;
51901;SDS011;37929;53.218;6.548;2022-10-23T02:32:35;10.90;;;7.30;;
51901;SDS011;37929;53.218;6.548;2022-10-23T02:35:05;12.45;;;6.93;;
51901;SDS011;37929;53.218;6.548;2022-10-23T02:37:31;10.27;;;6.60;;
51901;SDS011;37929;53.218;6.548;2022-10-23T02:39:57;11.93;;;6.95;;
51901;SDS011;37929;53.218;6.548;2022-10-23T02:42:59;12.60;;;7.30;;
51901;SDS011;37929;53.218;6.548;2022-10-23T02:48:05;11.40;;;6.60;;
51901;SDS011;37929;53.218;6.548;2022-10-23T02:53:35;9.88;;;6.78;;
51901;SDS011;37929;53.218;6.548;2022-10-23T02:58:46;10.40;;;6.05;;
51901;SDS011;37929;53.218;6.548;2022-10-23T03:01:21;12.77;;;6.50;;
51901;SDS011;37929;53.218;6.548;2022-10-23T03:03:57;11.52;;;6.82;;
51901;SDS011;37929;53.218;6.548;2022-10-23T03:06:25;10.52;;;6.90;;
51901;SDS011;37929;53.218;6.548;2022-10-23T03:08:53;14.02;;;7.13;;
51901;SDS011;37929;53.218;6.548;2022-10-23T03:11:22;8.32;;;6.05;;
51901;SDS011;37929;53.218;6.548;2022-10-23T03:13:48;10.02;;;6.30;;
51901;SDS011;37929;53.218;6.548;2022-10-23T03:16:13;9.15;;;5.75;;
51901;SDS011;37929;53.218;6.548;2022-10-23T03:18:39;11.27;;;5.70;;
51901;SDS011;37929;53.218;6.548;2022-10-23T03:21:05;9.00;;;5.72;;
51901;SDS011;37929;53.218;6.548;2022-10-23T03:23:31;8.70;;;5.82;;
51901;SDS011;37929;53.218;6.548;2022-10-23T03:25:57;10.10;;;5.60;;
51901;SDS011;37929;53.218;6.548;2022-10-23T03:28:22;10.70;;;6.22;;
51901;SDS011;37929;53.218;6.548;2022-10-23T03:30:48;9.57;;;6.32;;
51901;SDS011;37929;53.218;6.548;2022-10-23T03:33:14;9.02;;;6.03;;
51901;SDS011;37929;53.218;6.548;2022-10-23T03:35:39;9.20;;;6.32;;
51901;SDS011;37929;53.218;6.548;2022-10-23T03:38:08;9.77;;;6.03;;
51901;SDS011;37929;53.218;6.548;2022-10-23T03:40:34;9.10;;;5.78;;
51901;SDS011;37929;53.218;6.548;2022-10-23T03:43:00;11.35;;;5.82;;
51901;SDS011;37929;53.218;6.548;2022-10-23T03:45:27;10.48;;;6.07;;
51901;SDS011;37929;53.218;6.548;2022-10-23T03:47:52;8.20;;;5.25;;
51901;SDS011;37929;53.218;6.548;2022-10-23T03:50:18;8.63;;;5.80;;
51901;SDS011;37929;53.218;6.548;2022-10-23T03:52:44;9.80;;;6.00;;
51901;SDS011;37929;53.218;6.548;2022-10-23T03:55:10;9.55;;;6.38;;
51901;SDS011;37929;53.218;6.548;2022-10-23T03:57:36;9.32;;;5.82;;
51901;SDS011;37929;53.218;6.548;2022-10-23T04:00:03;11.35;;;6.22;;
51901;SDS011;37929;53.218;6.548;2022-10-23T04:02:29;9.38;;;6.20;;
51901;SDS011;37929;53.218;6.548;2022-10-23T04:04:55;9.45;;;6.05;;
51901;SDS011;37929;53.218;6.548;2022-10-23T04:07:21;10.50;;;6.30;;
51901;SDS011;37929;53.218;6.548;2022-10-23T04:09:47;10.90;;;6.22;;
51901;SDS011;37929;53.218;6.548;2022-10-23T04:12:13;10.05;;;6.05;;
51901;SDS011;37929;53.218;6.548;2022-10-23T04:14:41;9.77;;;6.30;;
51901;SDS011;37929;53.218;6.548;2022-10-23T04:17:07;8.68;;;5.97;;
51901;SDS011;37929;53.218;6.548;2022-10-23T04:19:33;10.43;;;6.25;;
51901;SDS011;37929;53.218;6.548;2022-10-23T04:21:59;10.35;;;6.35;;
51901;SDS011;37929;53.218;6.548;2022-10-23T04:24:24;9.65;;;6.07;;
51901;SDS011;37929;53.218;6.548;2022-10-23T04:26:50;9.88;;;7.25;;
51901;SDS011;37929;53.218;6.548;2022-10-23T04:29:17;11.20;;;7.30;;
51901;SDS011;37929;53.218;6.548;2022-10-23T04:31:45;16.25;;;8.07;;
51901;SDS011;37929;53.218;6.548;2022-10-23T04:34:17;11.07;;;7.63;;
51901;SDS011;37929;53.218;6.548;2022-10-23T04:36:43;13.63;;;7.88;;
51901;SDS011;37929;53.218;6.548;2022-10-23T04:39:11;16.38;;;8.43;;
51901;SDS011;37929;53.218;6.548;2022-10-23T04:41:38;14.05;;;7.68;;
51901;SDS011;37929;53.218;6.548;2022-10-23T04:44:04;15.82;;;8.75;;
51901;SDS011;37929;53.218;6.548;2022-10-23T04:46:30;15.07;;;8.57;;
51901;SDS011;37929;53.218;6.548;2022-10-23T04:48:56;15.27;;;7.90;;
51901;SDS011;37929;53.218;6.548;2022-10-23T04:51:21;12.75;;;8.30;;
51901;SDS011;37929;53.218;6.548;2022-10-23T04:53:47;15.63;;;8.35;;
51901;SDS011;37929;53.218;6.548;2022-10-23T04:56:13;12.20;;;8.00;;
51901;SDS011;37929;53.218;6.548;2022-10-23T04:58:42;12.82;;;7.95;;
51901;SDS011;37929;53.218;6.548;2022-10-23T05:01:11;14.77;;;8.70;;
51901;SDS011;37929;53.218;6.548;2022-10-23T05:03:37;12.70;;;8.10;;
51901;SDS011;37929;53.218;6.548;2022-10-23T05:06:04;13.85;;;7.93;;
51901;SDS011;37929;53.218;6.548;2022-10-23T05:08:30;13.77;;;7.63;;
51901;SDS011;37929;53.218;6.548;2022-10-23T05:10:56;13.15;;;8.27;;
51901;SDS011;37929;53.218;6.548;2022-10-23T05:13:22;13.02;;;7.65;;
51901;SDS011;37929;53.218;6.548;2022-10-23T05:15:48;13.68;;;8.00;;
51901;SDS011;37929;53.218;6.548;2022-10-23T05:21:18;11.25;;;7.80;;
51901;SDS011;37929;53.218;6.548;2022-10-23T05:23:49;12.05;;;7.55;;
51901;SDS011;37929;53.218;6.548;2022-10-23T05:26:16;11.60;;;7.75;;
51901;SDS011;37929;53.218;6.548;2022-10-23T05:28:42;14.93;;;7.90;;
51901;SDS011;37929;53.218;6.548;2022-10-23T05:31:07;13.75;;;7.68;;
51901;SDS011;37929;53.218;6.548;2022-10-23T05:33:33;13.32;;;8.10;;
51901;SDS011;37929;53.218;6.548;2022-10-23T05:36:00;16.27;;;7.95;;
51901;SDS011;37929;53.218;6.548;2022-10-23T05:38:27;12.77;;;7.40;;
51901;SDS011;37929;53.218;6.548;2022-10-23T05:40:56;12.23;;;7.05;;
51901;SDS011;37929;53.218;6.548;2022-10-23T05:43:22;12.20;;;7.03;;
51901;SDS011;37929;53.218;6.548;2022-10-23T05:45:50;16.35;;;7.63;;
51901;SDS011;37929;53.218;6.548;2022-10-23T05:48:15;11.00;;;8.25;;
51901;SDS011;37929;53.218;6.548;2022-10-23T05:50:41;13.40;;;7.75;;
51901;SDS011;37929;53.218;6.548;2022-10-23T05:53:08;13.65;;;7.68;;
51901;SDS011;37929;53.218;6.548;2022-10-23T05:55:34;13.80;;;8.35;;
51901;SDS011;37929;53.218;6.548;2022-10-23T05:58:00;12.48;;;7.38;;
51901;SDS011;37929;53.218;6.548;2022-10-23T06:00:27;12.15;;;7.97;;
51901;SDS011;37929;53.218;6.548;2022-10-23T06:02:52;13.23;;;7.97;;
51901;SDS011;37929;53.218;6.548;2022-10-23T06:05:18;13.65;;;7.90;;
51901;SDS011;37929;53.218;6.548;2022-10-23T06:07:44;13.13;;;7.78;;
51901;SDS011;37929;53.218;6.548;2022-10-23T06:10:10;14.27;;;8.05;;
51901;SDS011;37929;53.218;6.548;2022-10-23T06:12:38;14.50;;;7.70;;
51901;SDS011;37929;53.218;6.548;2022-10-23T06:15:05;12.00;;;7.55;;
51901;SDS011;37929;53.218;6.548;2022-10-23T06:17:31;15.50;;;8.52;;
51901;SDS011;37929;53.218;6.548;2022-10-23T06:19:56;12.93;;;7.25;;
51901;SDS011;37929;53.218;6.548;2022-10-23T06:22:27;14.88;;;6.93;;
51901;SDS011;37929;53.218;6.548;2022-10-23T06:24:53;15.25;;;8.65;;
51901;SDS011;37929;53.218;6.548;2022-10-23T06:27:19;12.77;;;8.23;;
51901;SDS011;37929;53.218;6.548;2022-10-23T06:29:45;14.32;;;8.02;;
51901;SDS011;37929;53.218;6.548;2022-10-23T06:32:14;12.13;;;7.95;;
51901;SDS011;37929;53.218;6.548;2022-10-23T06:34:39;11.45;;;7.07;;
51901;SDS011;37929;53.218;6.548;2022-10-23T06:37:05;13.80;;;7.78;;
51901;SDS011;37929;53.218;6.548;2022-10-23T06:39:31;12.40;;;7.35;;
51901;SDS011;37929;53.218;6.548;2022-10-23T06:41:56;14.05;;;7.60;;
51901;SDS011;37929;53.218;6.548;2022-10-23T06:44:22;14.10;;;7.90;;
51901;SDS011;37929;53.218;6.548;2022-10-23T06:46:48;13.85;;;8.13;;
51901;SDS011;37929;53.218;6.548;2022-10-23T06:49:14;13.75;;;7.63;;
51901;SDS011;37929;53.218;6.548;2022-10-23T06:51:41;12.25;;;7.70;;
51901;SDS011;37929;53.218;6.548;2022-10-23T06:54:07;14.40;;;8.00;;
51901;SDS011;37929;53.218;6.548;2022-10-23T06:56:34;13.75;;;7.57;;
51901;SDS011;37929;53.218;6.548;2022-10-23T06:59:00;12.82;;;7.53;;
51901;SDS011;37929;53.218;6.548;2022-10-23T07:01:25;12.50;;;7.60;;
51901;SDS011;37929;53.218;6.548;2022-10-23T07:03:51;12.35;;;7.68;;
51901;SDS011;37929;53.218;6.548;2022-10-23T07:06:17;11.20;;;6.80;;
51901;SDS011;37929;53.218;6.548;2022-10-23T07:08:43;12.63;;;7.45;;
51901;SDS011;37929;53.218;6.548;2022-10-23T07:11:10;13.68;;;7.63;;
51901;SDS011;37929;53.218;6.548;2022-10-23T07:13:36;12.88;;;7.68;;
51901;SDS011;37929;53.218;6.548;2022-10-23T07:16:17;11.43;;;7.32;;
51901;SDS011;37929;53.218;6.548;2022-10-23T07:18:44;10.38;;;6.95;;
51901;SDS011;37929;53.218;6.548;2022-10-23T07:21:11;12.38;;;7.22;;
51901;SDS011;37929;53.218;6.548;2022-10-23T07:23:37;11.48;;;7.68;;
51901;SDS011;37929;53.218;6.548;2022-10-23T07:26:07;13.82;;;7.68;;
51901;SDS011;37929;53.218;6.548;2022-10-23T07:28:41;10.75;;;7.10;;
51901;SDS011;37929;53.218;6.548;2022-10-23T07:31:09;13.13;;;6.88;;
51901;SDS011;37929;53.218;6.548;2022-10-23T07:33:35;12.50;;;7.28;;
51901;SDS011;37929;53.218;6.548;2022-10-23T07:36:02;12.40;;;6.65;;
51901;SDS011;37929;53.218;6.548;2022-10-23T07:38:29;12.68;;;7.70;;
51901;SDS011;37929;53.218;6.548;2022-10-23T07:40:56;14.38;;;7.20;;
51901;SDS011;37929;53.218;6.548;2022-10-23T07:43:22;11.85;;;6.95;;
51901;SDS011;37929;53.218;6.548;2022-10-23T07:45:49;15.20;;;7.57;;
51901;SDS011;37929;53.218;6.548;2022-10-23T07:48:15;13.85;;;6.90;;
51901;SDS011;37929;53.218;6.548;2022-10-23T07:50:41;12.23;;;6.72;;
51901;SDS011;37929;53.218;6.548;2022-10-23T07:53:09;12.25;;;7.13;;
51901;SDS011;37929;53.218;6.548;2022-10-23T07:55:50;12.00;;;7.18;;
51901;SDS011;37929;53.218;6.548;2022-10-23T07:58:19;13.27;;;7.22;;
51901;SDS011;37929;53.218;6.548;2022-10-23T08:00:45;11.27;;;7.03;;
51901;SDS011;37929;53.218;6.548;2022-10-23T08:03:20;10.05;;;6.45;;
51901;SDS011;37929;53.218;6.548;2022-10-23T08:05:46;10.32;;;6.85;;
51901;SDS011;37929;53.218;6.548;2022-10-23T08:08:12;10.57;;;6.65;;
51901;SDS011;37929;53.218;6.548;2022-10-23T08:10:37;12.85;;;6.30;;
51901;SDS011;37929;53.218;6.548;2022-10-23T08:13:05;9.68;;;6.10;;
51901;SDS011;37929;53.218;6.548;2022-10-23T08:15:33;12.00;;;6.45;;
51901;SDS011;37929;53.218;6.548;2022-10-23T08:17:59;10.60;;;6.10;;
51901;SDS011;37929;53.218;6.548;2022-10-23T08:20:25;10.65;;;6.50;;
51901;SDS011;37929;53.218;6.548;2022-10-23T08:22:50;13.02;;;7.45;;
51901;SDS011;37929;53.218;6.548;2022-10-23T08:25:17;13.40;;;7.53;;
51901;SDS011;37929;53.218;6.548;2022-10-23T08:27:43;12.55;;;6.90;;
51901;SDS011;37929;53.218;6.548;2022-10-23T08:30:09;11.20;;;6.60;;
51901;SDS011;37929;53.218;6.548;2022-10-23T08:32:35;13.15;;;6.95;;
51901;SDS011;37929;53.218;6.548;2022-10-23T08:35:00;13.20;;;6.85;;
51901;SDS011;37929;53.218;6.548;2022-10-23T08:37:29;10.40;;;6.47;;
51901;SDS011;37929;53.218;6.548;2022-10-23T08:39:55;10.93;;;6.70;;
51901;SDS011;37929;53.218;6.548;2022-10-23T08:42:25;10.82;;;7.00;;
51901;SDS011;37929;53.218;6.548;2022-10-23T08:47:27;12.20;;;6.82;;
51901;SDS011;37929;53.218;6.548;2022-10-23T08:50:02;9.18;;;6.10;;
51901;SDS011;37929;53.218;6.548;2022-10-23T08:52:45;11.38;;;6.25;;
51901;SDS011;37929;53.218;6.548;2022-10-23T08:55:18;11.63;;;6.70;;
51901;SDS011;37929;53.218;6.548;2022-10-23T08:58:06;12.57;;;6.70;;
51901;SDS011;37929;53.218;6.548;2022-10-23T09:00:43;10.80;;;6.25;;
51901;SDS011;37929;53.218;6.548;2022-10-23T09:03:14;11.23;;;6.32;;
51901;SDS011;37929;53.218;6.548;2022-10-23T09:11:18;10.68;;;6.50;;
51901;SDS011;37929;53.218;6.548;2022-10-23T09:14:01;12.45;;;6.72;;
51901;SDS011;37929;53.218;6.548;2022-10-23T09:16:58;11.55;;;6.32;;
51901;SDS011;37929;53.218;6.548;2022-10-23T09:19:26;11.85;;;6.70;;
51901;SDS011;37929;53.218;6.548;2022-10-23T09:21:54;11.27;;;6.47;;
51901;SDS011;37929;53.218;6.548;2022-10-23T09:24:21;8.88;;;6.05;;
51901;SDS011;37929;53.218;6.548;2022-10-23T09:26:49;10.70;;;6.40;;
51901;SDS011;37929;53.218;6.548;2022-10-23T09:29:21;10.60;;;6.30;;
51901;SDS011;37929;53.218;6.548;2022-10-23T09:31:50;9.52;;;6.40;;
51901;SDS011;37929;53.218;6.548;2022-10-23T09:34:21;9.45;;;5.82;;
51901;SDS011;37929;53.218;6.548;2022-10-23T09:36:49;10.20;;;6.07;;
51901;SDS011;37929;53.218;6.548;2022-10-23T09:39:38;9.63;;;5.95;;
51901;SDS011;37929;53.218;6.548;2022-10-23T09:42:13;10.93;;;5.85;;
51901;SDS011;37929;53.218;6.548;2022-10-23T09:44:47;10.18;;;5.95;;
51901;SDS011;37929;53.218;6.548;2022-10-23T09:47:16;9.45;;;6.15;;
51901;SDS011;37929;53.218;6.548;2022-10-23T09:49:48;10.38;;;6.28;;
51901;SDS011;37929;53.218;6.548;2022-10-23T09:59:58;8.52;;;5.38;;
51901;SDS011;37929;53.218;6.548;2022-10-23T10:02:58;6.97;;;5.00;;
51901;SDS011;37929;53.218;6.548;2022-10-23T10:05:30;10.55;;;6.07;;
51901;SDS011;37929;53.218;6.548;2022-10-23T10:16:32;9.23;;;5.22;;
51901;SDS011;37929;53.218;6.548;2022-10-23T10:21:45;7.53;;;4.63;;
51901;SDS011;37929;53.218;6.548;2022-10-23T10:24:29;8.57;;;5.20;;
51901;SDS011;37929;53.218;6.548;2022-10-23T10:27:03;7.35;;;4.47;;
51901;SDS011;37929;53.218;6.548;2022-10-23T10:30:04;9.48;;;4.82;;
51901;SDS011;37929;53.218;6.548;2022-10-23T10:38:09;11.70;;;5.72;;
51901;SDS011;37929;53.218;6.548;2022-10-23T10:48:57;7.88;;;4.07;;
51901;SDS011;37929;53.218;6.548;2022-10-23T10:53:58;6.70;;;4.57;;
51901;SDS011;37929;53.218;6.548;2022-10-23T10:56:28;5.70;;;4.32;;
51901;SDS011;37929;53.218;6.548;2022-10-23T10:59:01;5.88;;;4.30;;
51901;SDS011;37929;53.218;6.548;2022-10-23T11:02:46;7.70;;;4.72;;
51901;SDS011;37929;53.218;6.548;2022-10-23T11:07:28;6.93;;;4.45;;
51901;SDS011;37929;53.218;6.548;2022-10-23T11:10:05;8.55;;;4.82;;
51901;SDS011;37929;53.218;6.548;2022-10-23T11:12:40;5.68;;;4.13;;
51901;SDS011;37929;53.218;6.548;2022-10-23T11:15:42;8.57;;;4.85;;
51901;SDS011;37929;53.218;6.548;2022-10-23T11:18:05;6.53;;;4.63;;
51901;SDS011;37929;53.218;6.548;2022-10-23T11:20:50;7.93;;;4.75;;
51901;SDS011;37929;53.218;6.548;2022-10-23T11:37:18;6.65;;;4.60;;
51901;SDS011;37929;53.218;6.548;2022-10-23T11:48:19;7.13;;;4.38;;
51901;SDS011;37929;53.218;6.548;2022-10-23T11:56:02;5.85;;;3.70;;
51901;SDS011;37929;53.218;6.548;2022-10-23T12:01:29;5.82;;;4.00;;
51901;SDS011;37929;53.218;6.548;2022-10-23T12:06:39;6.78;;;4.47;;
51901;SDS011;37929;53.218;6.548;2022-10-23T12:19:48;6.10;;;4.00;;
51901;SDS011;37929;53.218;6.548;2022-10-23T12:22:19;5.32;;;3.70;;
51901;SDS011;37929;53.218;6.548;2022-10-23T12:24:56;6.18;;;4.20;;
51901;SDS011;37929;53.218;6.548;2022-10-23T12:30:12;5.85;;;3.55;;
51901;SDS011;37929;53.218;6.548;2022-10-23T12:35:32;5.63;;;3.80;;
51901;SDS011;37929;53.218;6.548;2022-10-23T12:38:03;5.28;;;3.90;;
51901;SDS011;37929;53.218;6.548;2022-10-23T12:40:39;5.93;;;4.05;;
51901;SDS011;37929;53.218;6.548;2022-10-23T12:46:00;5.00;;;3.30;;
51901;SDS011;37929;53.218;6.548;2022-10-23T12:48:48;4.72;;;3.50;;
51901;SDS011;37929;53.218;6.548;2022-10-23T12:51:21;5.03;;;3.30;;
51901;SDS011;37929;53.218;6.548;2022-10-23T12:54:15;5.28;;;3.45;;
51901;SDS011;37929;53.218;6.548;2022-10-23T12:56:42;7.22;;;3.90;;
51901;SDS011;37929;53.218;6.548;2022-10-23T12:59:12;6.75;;;3.83;;
51901;SDS011;37929;53.218;6.548;2022-10-23T13:01:43;7.25;;;3.40;;
51901;SDS011;37929;53.218;6.548;2022-10-23T13:07:00;5.20;;;3.42;;
51901;SDS011;37929;53.218;6.548;2022-10-23T13:11:59;4.65;;;3.42;;
51901;SDS011;37929;53.218;6.548;2022-10-23T13:17:06;6.13;;;3.47;;
51901;SDS011;37929;53.218;6.548;2022-10-23T13:19:36;6.22;;;3.40;;
51901;SDS011;37929;53.218;6.548;2022-10-23T13:22:18;4.13;;;3.25;;
51901;SDS011;37929;53.218;6.548;2022-10-23T13:24:45;6.20;;;3.42;;
51901;SDS011;37929;53.218;6.548;2022-10-23T13:27:45;6.88;;;4.25;;
51901;SDS011;37929;53.218;6.548;2022-10-23T13:30:25;8.10;;;3.55;;
51901;SDS011;37929;53.218;6.548;2022-10-23T13:32:56;4.80;;;3.30;;
51901;SDS011;37929;53.218;6.548;2022-10-23T13:35:22;5.88;;;3.47;;
51901;SDS011;37929;53.218;6.548;2022-10-23T13:37:48;4.30;;;3.45;;
51901;SDS011;37929;53.218;6.548;2022-10-23T13:42:52;5.63;;;3.72;;
51901;SDS011;37929;53.218;6.548;2022-10-23T13:45:20;6.05;;;3.45;;
51901;SDS011;37929;53.218;6.548;2022-10-23T13:47:48;4.90;;;3.13;;
51901;SDS011;37929;53.218;6.548;2022-10-23T13:50:15;4.47;;;3.22;;
51901;SDS011;37929;53.218;6.548;2022-10-23T13:52:41;4.38;;;2.92;;
51901;SDS011;37929;53.218;6.548;2022-10-23T13:55:18;5.68;;;3.47;;
51901;SDS011;37929;53.218;6.548;2022-10-23T13:57:47;5.20;;;3.17;;
51901;SDS011;37929;53.218;6.548;2022-10-23T14:00:12;4.55;;;3.05;;
51901;SDS011;37929;53.218;6.548;2022-10-23T14:02:39;5.72;;;3.22;;
51901;SDS011;37929;53.218;6.548;2022-10-23T14:05:06;6.53;;;2.88;;
51901;SDS011;37929;53.218;6.548;2022-10-23T14:07:31;7.63;;;3.10;;
51901;SDS011;37929;53.218;6.548;2022-10-23T14:09:57;4.63;;;3.00;;
51901;SDS011;37929;53.218;6.548;2022-10-23T14:12:26;3.75;;;2.78;;
51901;SDS011;37929;53.218;6.548;2022-10-23T14:14:54;4.20;;;3.13;;
51901;SDS011;37929;53.218;6.548;2022-10-23T14:17:20;3.95;;;3.00;;
51901;SDS011;37929;53.218;6.548;2022-10-23T14:19:46;4.50;;;3.40;;
51901;SDS011;37929;53.218;6.548;2022-10-23T14:22:12;4.93;;;2.83;;
51901;SDS011;37929;53.218;6.548;2022-10-23T14:24:37;4.63;;;3.25;;
51901;SDS011;37929;53.218;6.548;2022-10-23T14:27:03;4.97;;;3.22;;
51901;SDS011;37929;53.218;6.548;2022-10-23T14:29:29;6.57;;;3.72;;
51901;SDS011;37929;53.218;6.548;2022-10-23T14:31:58;4.05;;;3.05;;
51901;SDS011;37929;53.218;6.548;2022-10-23T14:34:24;4.10;;;3.13;;
51901;SDS011;37929;53.218;6.548;2022-10-23T14:36:49;4.60;;;2.90;;
51901;SDS011;37929;53.218;6.548;2022-10-23T14:39:15;4.70;;;2.83;;
51901;SDS011;37929;53.218;6.548;2022-10-23T14:41:41;4.88;;;2.83;;
51901;SDS011;37929;53.218;6.548;2022-10-23T14:44:07;7.10;;;3.10;;
51901;SDS011;37929;53.218;6.548;2022-10-23T14:46:35;4.50;;;2.83;;
51901;SDS011;37929;53.218;6.548;2022-10-23T14:49:04;4.18;;;2.83;;
51901;SDS011;37929;53.218;6.548;2022-10-23T14:51:30;4.10;;;2.80;;
51901;SDS011;37929;53.218;6.548;2022-10-23T14:53:57;5.40;;;3.00;;
51901;SDS011;37929;53.218;6.548;2022-10-23T14:56:28;5.68;;;2.70;;
51901;SDS011;37929;53.218;6.548;2022-10-23T14:58:55;4.40;;;2.78;;
51901;SDS011;37929;53.218;6.548;2022-10-23T15:03:56;6.18;;;2.75;;
51901;SDS011;37929;53.218;6.548;2022-10-23T15:06:21;4.82;;;2.78;;
51901;SDS011;37929;53.218;6.548;2022-10-23T15:08:51;4.63;;;2.85;;
51901;SDS011;37929;53.218;6.548;2022-10-23T15:11:19;4.07;;;2.80;;
51901;SDS011;37929;53.218;6.548;2022-10-23T15:13:46;5.32;;;2.70;;
51901;SDS011;37929;53.218;6.548;2022-10-23T15:16:12;4.75;;;2.95;;
51901;SDS011;37929;53.218;6.548;2022-10-23T15:18:38;3.45;;;2.63;;
51901;SDS011;37929;53.218;6.548;2022-10-23T15:21:04;5.28;;;3.10;;
51901;SDS011;37929;53.218;6.548;2022-10-23T15:23:31;6.07;;;3.17;;
51901;SDS011;37929;53.218;6.548;2022-10-23T15:25:59;4.20;;;2.85;;
51901;SDS011;37929;53.218;6.548;2022-10-23T15:28:27;4.70;;;2.92;;
51901;SDS011;37929;53.218;6.548;2022-10-23T15:30:56;4.82;;;2.70;;
51901;SDS011;37929;53.218;6.548;2022-10-23T15:33:22;4.28;;;2.83;;
51901;SDS011;37929;53.218;6.548;2022-10-23T15:35:49;3.45;;;2.65;;
51901;SDS011;37929;53.218;6.548;2022-10-23T15:38:16;4.72;;;3.05;;
51901;SDS011;37929;53.218;6.548;2022-10-23T15:40:42;5.55;;;3.20;;
51901;SDS011;37929;53.218;6.548;2022-10-23T15:43:10;4.78;;;3.08;;
51901;SDS011;37929;53.218;6.548;2022-10-23T15:45:37;6.40;;;4.00;;
51901;SDS011;37929;53.218;6.548;2022-10-23T15:48:03;4.28;;;3.17;;
51901;SDS011;37929;53.218;6.548;2022-10-23T15:50:30;6.75;;;4.15;;
51901;SDS011;37929;53.218;6.548;2022-10-23T15:52:56;7.20;;;3.80;;
51901;SDS011;37929;53.218;6.548;2022-10-23T15:55:27;6.05;;;3.30;;
51901;SDS011;37929;53.218;6.548;2022-10-23T15:57:53;6.45;;;3.22;;
51901;SDS011;37929;53.218;6.548;2022-10-23T16:00:24;5.32;;;3.45;;
51901;SDS011;37929;53.218;6.548;2022-10-23T16:02:50;5.30;;;3.10;;
51901;SDS011;37929;53.218;6.548;2022-10-23T16:05:16;7.30;;;3.88;;
51901;SDS011;37929;53.218;6.548;2022-10-23T16:07:42;5.55;;;3.13;;
51901;SDS011;37929;53.218;6.548;2022-10-23T16:10:08;6.53;;;4.00;;
51901;SDS011;37929;53.218;6.548;2022-10-23T16:12:34;5.05;;;3.60;;
51901;SDS011;37929;53.218;6.548;2022-10-23T16:14:59;5.88;;;3.13;;
51901;SDS011;37929;53.218;6.548;2022-10-23T16:17:25;5.13;;;3.22;;
51901;SDS011;37929;53.218;6.548;2022-10-23T16:19:51;4.93;;;3.03;;
51901;SDS011;37929;53.218;6.548;2022-10-23T16:22:17;4.63;;;2.80;;
51901;SDS011;37929;53.218;6.548;2022-10-23T16:24:42;5.68;;;2.80;;
51901;SDS011;37929;53.218;6.548;2022-10-23T16:27:08;4.45;;;3.00;;
51901;SDS011;37929;53.218;6.548;2022-10-23T16:29:34;4.35;;;2.83;;
51901;SDS011;37929;53.218;6.548;2022-10-23T16:32:00;4.03;;;3.15;;
51901;SDS011;37929;53.218;6.548;2022-10-23T16:34:26;4.45;;;3.20;;
51901;SDS011;37929;53.218;6.548;2022-10-23T16:36:51;5.03;;;2.90;;
51901;SDS011;37929;53.218;6.548;2022-10-23T16:39:18;5.00;;;3.15;;
51901;SDS011;37929;53.218;6.548;2022-10-23T16:41:44;5.78;;;3.03;;
51901;SDS011;37929;53.218;6.548;2022-10-23T16:44:10;4.05;;;3.10;;
51901;SDS011;37929;53.218;6.548;2022-10-23T16:46:36;4.07;;;3.08;;
51901;SDS011;37929;53.218;6.548;2022-10-23T16:49:03;3.83;;;3.28;;
51901;SDS011;37929;53.218;6.548;2022-10-23T16:51:30;4.43;;;2.83;;
51901;SDS011;37929;53.218;6.548;2022-10-23T16:53:56;6.38;;;3.20;;
51901;SDS011;37929;53.218;6.548;2022-10-23T16:56:24;5.55;;;3.33;;
51901;SDS011;37929;53.218;6.548;2022-10-23T16:58:53;4.28;;;2.85;;
51901;SDS011;37929;53.218;6.548;2022-10-23T17:01:20;5.72;;;3.30;;
51901;SDS011;37929;53.218;6.548;2022-10-23T17:03:51;5.00;;;3.03;;
51901;SDS011;37929;53.218;6.548;2022-10-23T17:06:24;6.07;;;4.38;;
51901;SDS011;37929;53.218;6.548;2022-10-23T17:08:54;5.05;;;3.78;;
51901;SDS011;37929;53.218;6.548;2022-10-23T17:11:21;6.03;;;3.60;;
51901;SDS011;37929;53.218;6.548;2022-10-23T17:14:11;4.72;;;2.88;;
51901;SDS011;37929;53.218;6.548;2022-10-23T17:16:45;6.00;;;3.30;;
51901;SDS011;37929;53.218;6.548;2022-10-23T17:19:13;4.78;;;2.97;;